Airfield :
LOGIN :

Register | Disclaimer

   EN    FR    IT 

 










Legend :    VFR   Marginal VFR   IFR   Intensive IFR   Very Intensive IFR
Visi :
Ceiling :
>= 8 km
>= 3000ft
5 to 8 km
1000 to 3000 ft
1500m to 5 km
500 to 1000 ft
800 to 1500m
200 to 500 ft
< 800m
< 200 ft
Symbols :   Thunderstorms  Fog  Heavy snow  Heavy precipitations  Wind > 20 kt
SIGMETs :     Misc.  Thunderstorms  Icing  Turbulence  Mountain Waves  Volcanic Ashes






- Airport Elevation : 37 ft


EHVL - Vlieland Heliport

CURRENT METAR :
  • 281355Z AUTO 02012KT 9999 OVC100 15/10 Q1035 BLU

EXPIRED METARs :
  • 281325Z AUTO 02010KT 9999 BKN120 15/10 Q1035 BLU
  • 281255Z AUTO 02011KT 9999 OVC120 15/09 Q1035 BLU
  • 281225Z AUTO 01011KT 9999 OVC130 15/10 Q1035 BLU
  • 281155Z AUTO 01010KT 9999 OVC150 14/09 Q1035 BLU
  • 281125Z AUTO 02010KT 9999 BKN140 15/09 Q1035 BLU
  • 281055Z AUTO 03011KT 9999 FEW180 15/10 Q1036 BLU

Expired Forecast.



MET'MAP, your aeronautical weather chart ! - Copyright ORBIFLY December 2007 - Disclaimer

ORBIFLY MET'MAP TEAM :

Programming & Development : Alexandra Zaïnal
Concept & original design : Baudouin d'Aumeries
Assistance for programming : Marc-Olivier Méhu
Technical & hardware support : Manuel Goepfert

Contact : metmap@orbifly.com




SOURCES & CREDITS :

   NOAA